Time;durP1;ratioP1;P1;durP2;ratioP2;P2;SDS_P1;SDS_P2;PMS_P1;PMS_P2;Temp;Humidity;BMP_temperature;BMP_pressure;BME280_temperature;BME280_humidity;BME280_pressure;Samples;Min_cycle;Max_cycle;Signal;HPM_P1;HPM_P2
2021/12/21 00:01:16;;;;;;;53.60;28.13;;;;;;;-4.52;100.00;102674.09;4908817;29;20372;-90
2021/12/21 00:03:44;;;;;;;57.58;26.55;;;;;;;-4.63;100.00;102662.63;4932479;29;20046;-89
2021/12/21 00:06:15;;;;;;;52.67;26.63;;;;;;;-4.73;100.00;102651.16;4913235;29;20423;-89
2021/12/21 00:08:41;;;;;;;55.40;26.65;;;;;;;-4.57;100.00;102698.00;4934943;29;20052;-89
2021/12/21 00:11:06;;;;;;;55.30;26.98;;;;;;;-4.77;100.00;102666.25;4934645;29;20090;-89
2021/12/21 00:21:45;;;;;;;57.83;25.35;;;;;;;-4.64;100.00;102668.81;4876067;29;20048;-89
2021/12/21 00:24:18;;;;;;;53.75;26.55;;;;;;;-4.67;100.00;102662.97;4875188;29;20418;-88
2021/12/21 00:26:44;;;;;;;53.45;25.80;;;;;;;-4.64;100.00;102660.13;4898244;29;20043;-89
2021/12/21 00:29:09;;;;;;;55.53;26.30;;;;;;;-4.53;100.00;102673.25;4897781;29;20024;-89
2021/12/21 00:31:41;;;;;;;67.05;27.40;;;;;;;-4.75;100.00;102640.81;4915490;29;20032;-89
2021/12/21 00:34:07;;;;;;;59.90;26.58;;;;;;;-4.62;100.00;102664.28;4912987;29;20028;-89
2021/12/21 00:36:35;;;;;;;59.38;27.55;;;;;;;-4.77;100.00;102655.81;4896258;29;20129;-89
2021/12/21 00:39:05;;;;;;;59.42;27.50;;;;;;;-4.62;100.00;102668.72;4896154;29;20033;-89
2021/12/21 00:41:31;;;;;;;66.63;28.67;;;;;;;-4.64;100.00;102650.47;4896471;29;20108;-89
2021/12/21 00:43:57;;;;;;;60.28;27.63;;;;;;;-4.47;100.00;102664.97;4902069;29;20115;-89
2021/12/21 00:46:23;;;;;;;55.70;27.15;;;;;;;-4.59;100.00;102655.41;4915289;29;20028;-89
2021/12/21 00:48:49;;;;;;;63.15;27.83;;;;;;;-4.68;100.00;102653.44;4914866;29;20060;-89
2021/12/21 00:51:24;;;;;;;64.10;26.80;;;;;;;-4.82;100.00;102651.81;4898163;29;20119;-88
2021/12/21 00:53:50;;;;;;;61.33;27.65;;;;;;;-4.76;100.00;102667.94;4914794;29;20160;-89
2021/12/21 00:56:16;;;;;;;59.92;27.45;;;;;;;-4.99;100.00;102638.19;4897646;29;20032;-89
2021/12/21 00:58:41;;;;;;;64.20;26.52;;;;;;;-4.90;100.00;102652.38;4914336;29;20028;-89
2021/12/21 01:01:07;;;;;;;63.30;27.38;;;;;;;-5.05;100.00;102629.00;4914544;29;20125;-89
2021/12/21 01:03:36;;;;;;;61.85;26.45;;;;;;;-4.95;100.00;102646.66;4915443;29;20468;-89
2021/12/21 01:06:15;;;;;;;68.70;28.73;;;;;;;-4.86;100.00;102656.44;4914559;29;20388;-89
2021/12/21 01:09:35;;;;;;;72.47;28.70;;;;;;;-5.06;100.00;102629.13;4897403;29;20048;-89
2021/12/21 01:11:46;;;;;;;67.70;29.13;;;;;;;-4.88;100.00;102658.34;4913150;29;20055;-89
2021/12/21 01:17:15;;;;;;;67.25;28.40;;;;;;;-5.11;100.00;102639.06;4906162;29;20108;-89
2021/12/21 01:19:46;;;;;;;65.82;26.90;;;;;;;-5.17;100.00;102643.78;4916406;29;20031;-89
2021/12/21 01:22:27;;;;;;;62.45;27.98;;;;;;;-5.16;100.00;102655.09;4933366;29;20035;-89
2021/12/21 01:25:16;;;;;;;66.50;26.30;;;;;;;-5.26;100.00;102651.44;4920970;29;20035;-89
2021/12/21 01:28:00;;;;;;;68.93;25.63;;;;;;;-5.34;100.00;102641.53;4878944;29;20089;-89
2021/12/21 01:30:40;;;;;;;60.42;26.17;;;;;;;-5.18;100.00;102673.47;4882999;29;20051;-89
2021/12/21 01:33:37;;;;;;;62.30;26.67;;;;;;;-5.18;100.00;102644.72;4897217;29;20040;-89
2021/12/21 01:36:20;;;;;;;62.85;26.75;;;;;;;-5.17;100.00;102633.31;4899978;29;20043;-89
2021/12/21 01:39:13;;;;;;;67.28;28.42;;;;;;;-5.07;100.00;102643.97;4878015;29;20039;-90
2021/12/21 01:41:42;;;;;;;67.97;27.75;;;;;;;-5.02;100.00;102662.78;4896317;29;20104;-89
2021/12/21 01:49:33;;;;;;;66.22;27.65;;;;;;;-5.15;100.00;102630.63;4886980;29;20107;-89
2021/12/21 01:50:07;;;;;;;61.45;27.50;;;;;;;-5.08;100.00;102637.06;4913613;29;20181;-89
2021/12/21 01:52:33;;;;;;;69.75;27.20;;;;;;;-4.95;100.00;102651.91;4913183;29;20075;-89
2021/12/21 01:54:58;;;;;;;64.57;28.65;;;;;;;-5.26;100.00;102612.22;4913506;29;20056;-89
2021/12/21 01:57:23;;;;;;;61.55;27.00;;;;;;;-5.15;100.00;102635.84;4913806;29;20531;-90
2021/12/21 01:59:49;;;;;;;76.68;30.05;;;;;;;-5.35;100.00;102609.34;4913834;29;20032;-90
2021/12/21 02:02:18;;;;;;;74.00;29.05;;;;;;;-5.23;100.00;102612.00;4925694;23;20522;-89
2021/12/21 02:04:44;;;;;;;76.35;29.38;;;;;;;-5.03;100.00;102645.41;4927330;29;20039;-89
2021/12/21 02:07:10;;;;;;;67.40;29.02;;;;;;;-5.08;100.00;102636.25;4932486;29;20440;-89
2021/12/21 02:09:42;;;;;;;73.45;28.80;;;;;;;-5.17;100.00;102606.34;4932694;29;20028;-89
2021/12/21 02:12:19;;;;;;;64.88;26.77;;;;;;;-5.29;100.00;102597.59;4905939;29;20135;-89
2021/12/21 02:14:57;;;;;;;61.30;27.13;;;;;;;-5.20;100.00;102610.00;4928050;29;20038;-90
2021/12/21 02:20:41;;;;;;;68.85;26.23;;;;;;;-5.29;100.00;102634.19;4932165;29;20036;-89
2021/12/21 02:23:22;;;;;;;69.68;26.23;;;;;;;-5.67;100.00;102590.69;4932278;29;20043;-89
2021/12/21 02:30:55;;;;;;;65.15;28.70;;;;;;;-5.39;100.00;102627.97;4931898;29;20034;-89
2021/12/21 02:33:29;;;;;;;71.95;29.17;;;;;;;-5.50;100.00;102605.19;4931974;29;20040;-89
2021/12/21 02:35:57;;;;;;;66.07;28.50;;;;;;;-5.41;100.00;102617.59;4932068;29;20023;-89
2021/12/21 02:38:22;;;;;;;64.00;28.10;;;;;;;-5.33;100.00;102630.97;4931983;29;20404;-89
2021/12/21 02:40:48;;;;;;;75.53;30.15;;;;;;;-5.37;100.00;102607.75;4932330;29;20059;-89
2021/12/21 02:43:13;;;;;;;64.72;28.02;;;;;;;-5.47;100.00;102597.13;4915339;29;20038;-89
2021/12/21 02:45:40;;;;;;;66.80;28.30;;;;;;;-5.41;100.00;102606.31;4931983;29;20063;-89
2021/12/21 02:48:09;;;;;;;69.60;27.77;;;;;;;-5.40;100.00;102621.06;4932024;29;20053;-89
2021/12/21 02:50:39;;;;;;;63.70;28.35;;;;;;;-5.36;100.00;102622.50;4932292;29;20028;-89
2021/12/21 02:53:09;;;;;;;66.65;26.20;;;;;;;-5.42;100.00;102618.53;4932430;29;20036;-89
2021/12/21 02:55:38;;;;;;;60.50;27.40;;;;;;;-5.50;100.00;102587.72;4914986;29;20048;-89
2021/12/21 02:58:04;;;;;;;59.78;28.27;;;;;;;-5.39;100.00;102592.19;4931927;29;20142;-89
2021/12/21 03:00:31;;;;;;;65.63;28.20;;;;;;;-5.25;100.00;102603.44;4932717;29;20039;-88
2021/12/21 03:02:56;;;;;;;66.45;27.00;;;;;;;-5.33;100.00;102607.47;4931788;29;20031;-88
2021/12/21 03:05:22;;;;;;;59.33;26.52;;;;;;;-5.38;100.00;102596.50;4932136;29;20517;-88
2021/12/21 03:10:24;;;;;;;61.33;25.95;;;;;;;-5.55;100.00;102604.69;4932422;29;20034;-88
2021/12/21 03:15:41;;;;;;;66.45;25.38;;;;;;;-5.68;100.00;102591.63;4932357;29;20561;-88
2021/12/21 03:18:06;;;;;;;59.80;26.55;;;;;;;-5.50;100.00;102611.25;4934783;29;20150;-87
2021/12/21 03:20:34;;;;;;;58.17;27.58;;;;;;;-5.54;100.00;102582.84;4935510;29;20724;-88
2021/12/21 03:22:59;;;;;;;70.00;27.23;;;;;;;-5.45;100.00;102592.63;4934296;29;20027;-88
2021/12/21 03:25:27;;;;;;;66.93;25.58;;;;;;;-5.57;100.00;102588.28;4935277;29;20038;-88
2021/12/21 03:27:52;;;;;;;54.97;25.85;;;;;;;-5.70;100.00;102580.44;4935496;29;20493;-89
2021/12/21 03:30:18;;;;;;;56.40;25.58;;;;;;;-5.77;100.00;102582.66;4935900;29;20031;-88
2021/12/21 03:32:43;;;;;;;52.85;24.30;;;;;;;-5.80;100.00;102588.94;4935048;29;20106;-88
2021/12/21 03:35:09;;;;;;;67.72;25.75;;;;;;;-5.73;100.00;102602.41;4935440;29;20078;-89
2021/12/21 03:37:35;;;;;;;54.63;24.38;;;;;;;-5.96;100.00;102588.31;4935400;29;20440;-88
2021/12/21 03:40:02;;;;;;;54.15;24.02;;;;;;;-5.93;100.00;102598.53;4935586;29;20027;-89
2021/12/21 03:42:28;;;;;;;53.00;24.02;;;;;;;-6.13;100.00;102571.22;4950377;29;20032;-89
2021/12/21 03:44:53;;;;;;;56.75;24.90;;;;;;;-6.01;100.00;102585.22;4938175;29;20079;-89
2021/12/21 03:47:22;;;;;;;58.78;25.05;;;;;;;-6.08;100.00;102576.97;4934867;29;20042;-88
2021/12/21 03:50:00;;;;;;;60.95;25.55;;;;;;;-6.04;100.00;102586.28;4935067;29;20106;-89
2021/12/21 03:52:29;;;;;;;60.17;25.30;;;;;;;-6.15;100.00;102567.88;4935296;29;20131;-88
2021/12/21 03:54:58;;;;;;;67.88;27.33;;;;;;;-5.89;100.00;102593.97;4935057;29;20507;-88
2021/12/21 03:57:25;;;;;;;71.63;27.60;;;;;;;-5.95;100.00;102580.38;4935070;29;20027;-88
2021/12/21 03:59:53;;;;;;;62.67;26.73;;;;;;;-6.01;100.00;102561.72;4917935;29;20034;-88
2021/12/21 04:02:24;;;;;;;58.90;26.85;;;;;;;-5.74;100.00;102592.91;4917534;29;20027;-88
2021/12/21 04:04:53;;;;;;;62.35;26.15;;;;;;;-5.81;100.00;102587.25;4934880;29;20435;-88
2021/12/21 04:07:19;;;;;;;58.90;25.60;;;;;;;-5.95;100.00;102576.94;4920064;29;20027;-88
2021/12/21 04:09:44;;;;;;;63.60;26.92;;;;;;;-6.06;100.00;102559.44;4934914;29;20479;-88
2021/12/21 04:12:18;;;;;;;62.22;27.35;;;;;;;-6.08;100.00;102548.25;4934273;29;20465;-88
2021/12/21 04:14:44;;;;;;;53.28;24.55;;;;;;;-6.09;100.00;102551.81;4934644;29;20198;-88
2021/12/21 04:17:22;;;;;;;54.28;24.33;;;;;;;-6.03;100.00;102572.28;4917654;29;20534;-88
2021/12/21 04:19:49;;;;;;;59.13;25.20;;;;;;;-6.11;100.00;102575.38;4934450;29;20027;-88
2021/12/21 04:22:15;;;;;;;56.42;25.60;;;;;;;-5.99;100.00;102591.97;4916501;29;20031;-88
2021/12/21 04:24:41;;;;;;;61.90;25.75;;;;;;;-6.06;100.00;102569.88;4934686;29;20119;-89
2021/12/21 04:27:06;;;;;;;59.08;25.73;;;;;;;-6.03;100.00;102561.84;4934084;29;20543;-88
2021/12/21 04:29:41;;;;;;;58.90;28.25;;;;;;;-5.92;100.00;102587.16;4948807;28;20028;-88
2021/12/21 04:32:06;;;;;;;58.55;25.20;;;;;;;-6.01;100.00;102590.44;4934465;29;20384;-88
2021/12/21 04:34:32;;;;;;;58.38;26.45;;;;;;;-6.21;100.00;102558.69;4934263;29;20036;-89
2021/12/21 04:36:57;;;;;;;57.97;25.58;;;;;;;-6.21;100.00;102552.66;4917181;29;20407;-88
2021/12/21 04:39:34;;;;;;;55.42;26.23;;;;;;;-6.24;100.00;102551.06;4934163;29;20032;-88
2021/12/21 04:41:59;;;;;;;54.58;26.13;;;;;;;-6.25;100.00;102549.41;4916100;29;20065;-88
2021/12/21 04:44:24;;;;;;;50.00;23.85;;;;;;;-6.24;100.00;102570.19;4934669;29;20032;-88
2021/12/21 04:47:06;;;;;;;52.55;23.55;;;;;;;-6.45;100.00;102550.75;4934258;29;20483;-88
2021/12/21 04:49:37;;;;;;;58.10;24.23;;;;;;;-6.37;100.00;102558.06;4917345;29;20555;-88
2021/12/21 04:52:06;;;;;;;62.50;23.95;;;;;;;-6.41;100.00;102552.22;4933153;29;20075;-88
2021/12/21 04:54:34;;;;;;;59.20;24.50;;;;;;;-6.40;100.00;102551.28;4933018;29;20068;-88
2021/12/21 04:56:59;;;;;;;59.47;25.60;;;;;;;-6.34;100.00;102557.88;4933000;29;20046;-87
2021/12/21 04:59:24;;;;;;;58.85;26.50;;;;;;;-6.13;100.00;102566.00;4916483;29;20423;-87
2021/12/21 05:01:53;;;;;;;59.20;26.45;;;;;;;-6.17;100.00;102549.72;4933565;29;20036;-90
2021/12/21 05:04:19;;;;;;;59.55;25.05;;;;;;;-6.02;100.00;102578.31;4933596;29;20487;-90
2021/12/21 05:06:45;;;;;;;52.05;26.42;;;;;;;-6.24;100.00;102538.88;4933824;29;20063;-91
2021/12/21 05:09:26;;;;;;;59.40;25.42;;;;;;;-6.13;100.00;102571.22;4933223;29;20047;-91
2021/12/21 05:12:03;;;;;;;58.85;25.75;;;;;;;-6.11;100.00;102567.56;4934385;29;20038;-91
2021/12/21 05:14:29;;;;;;;58.88;24.58;;;;;;;-6.22;100.00;102556.19;4933667;29;20028;-90
2021/12/21 05:16:54;;;;;;;61.40;25.60;;;;;;;-6.24;100.00;102557.13;4916734;29;20034;-91
2021/12/21 05:19:20;;;;;;;52.40;24.27;;;;;;;-6.30;100.00;102570.59;4933243;29;20042;-91
2021/12/21 05:21:45;;;;;;;52.42;24.13;;;;;;;-6.38;100.00;102562.44;4933958;29;20519;-90
2021/12/21 05:24:23;;;;;;;54.25;25.27;;;;;;;-6.46;100.00;102556.91;4933426;29;20118;-90
2021/12/21 05:27:00;;;;;;;53.10;23.77;;;;;;;-6.51;100.00;102552.00;4933960;29;20035;-90
2021/12/21 05:29:36;;;;;;;52.55;23.90;;;;;;;-6.35;100.00;102572.66;4933417;29;20435;-90
2021/12/21 05:32:07;;;;;;;56.00;25.90;;;;;;;-6.49;100.00;102554.50;4933168;29;20036;-91
2021/12/21 05:34:41;;;;;;;51.55;24.60;;;;;;;-6.41;100.00;102557.44;4915291;29;20043;-91
2021/12/21 05:37:07;;;;;;;54.65;25.08;;;;;;;-6.23;100.00;102581.44;4933469;29;20571;-88
2021/12/21 05:39:57;;;;;;;60.42;25.30;;;;;;;-6.38;100.00;102557.22;4932384;29;20115;-88
2021/12/21 05:42:23;;;;;;;56.33;24.60;;;;;;;-6.29;100.00;102571.41;4932963;29;20067;-88
2021/12/21 05:44:49;;;;;;;56.15;25.77;;;;;;;-6.36;100.00;102557.94;4931417;29;20454;-87
2021/12/21 05:47:18;;;;;;;57.22;25.15;;;;;;;-6.43;100.00;102554.09;4929596;29;20091;-87
2021/12/21 05:49:44;;;;;;;56.13;25.08;;;;;;;-6.56;100.00;102547.06;4915237;29;20039;-87
2021/12/21 05:52:11;;;;;;;52.45;24.77;;;;;;;-6.37;100.00;102600.63;4932998;29;20043;-86
2021/12/21 05:54:37;;;;;;;51.20;24.20;;;;;;;-6.61;100.00;102564.81;4932509;29;20023;-87
2021/12/21 05:57:03;;;;;;;55.22;25.98;;;;;;;-6.57;100.00;102566.25;4932862;29;20515;-87
2021/12/21 05:59:28;;;;;;;59.28;25.85;;;;;;;-6.42;100.00;102574.84;4932098;29;20031;-87
2021/12/21 06:01:54;;;;;;;56.42;25.95;;;;;;;-6.34;100.00;102583.97;4933037;29;20547;-86
2021/12/21 06:04:21;;;;;;;58.22;26.05;;;;;;;-6.42;100.00;102574.03;4932391;29;20023;-86
2021/12/21 06:06:46;;;;;;;51.28;24.58;;;;;;;-6.41;100.00;102575.72;4933164;29;20718;-86
2021/12/21 06:09:13;;;;;;;70.30;26.63;;;;;;;-6.50;100.00;102566.72;4932044;29;20178;-86
2021/12/21 06:12:07;;;;;;;57.67;26.58;;;;;;;-6.41;100.00;102576.53;4932607;29;20066;-89
2021/12/21 06:22:49;;;;;;;58.22;25.77;;;;;;;-6.62;100.00;102563.16;4939060;23;20106;-87
2021/12/21 06:28:08;;;;;;;56.67;25.40;;;;;;;-6.59;100.00;102581.22;4931882;29;20123;-87
2021/12/21 06:30:34;;;;;;;59.20;26.05;;;;;;;-6.45;100.00;102590.72;4933230;29;20038;-86
2021/12/21 06:33:00;;;;;;;58.10;25.60;;;;;;;-6.42;100.00;102581.84;4931721;29;20146;-86
2021/12/21 06:35:25;;;;;;;62.92;27.92;;;;;;;-6.44;100.00;102560.25;4932703;29;20515;-87
2021/12/21 06:37:51;;;;;;;61.63;28.05;;;;;;;-6.37;100.00;102577.16;4931307;29;20054;-86
2021/12/21 06:40:17;;;;;;;63.05;26.55;;;;;;;-6.51;100.00;102566.81;4931937;29;20476;-85
2021/12/21 06:42:45;;;;;;;63.60;26.65;;;;;;;-6.51;100.00;102567.66;4932113;29;20036;-86
2021/12/21 06:45:24;;;;;;;63.08;26.58;;;;;;;-6.46;100.00;102585.59;4931588;29;20028;-86
2021/12/21 06:53:26;;;;;;;59.63;25.58;;;;;;;-6.76;100.00;102591.91;4935992;29;20059;-87
2021/12/21 06:55:51;;;;;;;54.17;25.38;;;;;;;-6.95;100.00;102576.59;4937616;29;20032;-87
2021/12/21 06:58:16;;;;;;;61.95;25.83;;;;;;;-7.00;100.00;102561.28;4919531;29;20054;-87
2021/12/21 07:00:43;;;;;;;58.05;27.73;;;;;;;-6.98;100.00;102558.56;4937147;29;20027;-87
2021/12/21 07:03:08;;;;;;;59.42;29.08;;;;;;;-6.73;100.00;102591.69;4935832;29;20031;-87
2021/12/21 07:05:37;;;;;;;69.43;29.52;;;;;;;-6.67;100.00;102573.03;4935305;29;20028;-87
2021/12/21 07:08:04;;;;;;;62.03;29.25;;;;;;;-6.54;100.00;102576.50;4926614;29;20236;-90
2021/12/21 07:10:31;;;;;;;59.92;27.13;;;;;;;-6.59;100.00;102576.00;4935875;29;20111;-86
2021/12/21 07:18:29;;;;;;;67.63;27.10;;;;;;;-6.64;100.00;102592.84;4920093;29;20055;-88
2021/12/21 07:20:56;;;;;;;64.28;26.40;;;;;;;-6.55;100.00;102593.09;4929652;29;20031;-87
2021/12/21 07:23:21;;;;;;;63.33;27.58;;;;;;;-6.61;100.00;102595.25;4935284;29;20027;-87
2021/12/21 07:25:47;;;;;;;55.33;26.33;;;;;;;-6.62;100.00;102598.81;4932714;29;20490;-88
2021/12/21 07:28:21;;;;;;;63.47;26.08;;;;;;;-6.65;100.00;102607.69;4913619;29;20119;-89
2021/12/21 07:30:47;;;;;;;56.78;25.45;;;;;;;-6.78;100.00;102593.78;4937066;29;20095;-87
2021/12/21 07:33:19;;;;;;;58.50;26.35;;;;;;;-6.73;100.00;102610.78;4936921;29;20031;-89
2021/12/21 07:35:44;;;;;;;61.70;27.58;;;;;;;-6.76;100.00;102600.56;4935061;29;20471;-88
2021/12/21 07:38:19;;;;;;;58.58;26.10;;;;;;;-6.78;100.00;102610.25;4934472;29;20031;-88
2021/12/21 07:40:45;;;;;;;60.83;27.48;;;;;;;-7.03;100.00;102559.69;4933912;29;20032;-89
2021/12/21 07:43:13;;;;;;;64.82;28.13;;;;;;;-6.73;100.00;102602.97;4933635;29;20046;-89
2021/12/21 07:45:38;;;;;;;64.72;27.27;;;;;;;-6.78;100.00;102592.00;4917099;29;20503;-89
2021/12/21 07:48:04;;;;;;;61.85;27.50;;;;;;;-6.75;100.00;102604.84;4918999;29;20032;-88
2021/12/21 07:50:29;;;;;;;58.25;27.45;;;;;;;-6.80;100.00;102603.47;4935492;29;20122;-89
2021/12/21 07:52:56;;;;;;;65.78;28.08;;;;;;;-6.97;100.00;102586.28;4935308;29;20047;-88
2021/12/21 07:55:21;;;;;;;56.13;27.95;;;;;;;-6.80;100.00;102606.91;4942362;29;20039;-87
2021/12/21 07:57:47;;;;;;;64.43;27.92;;;;;;;-6.79;100.00;102602.53;4919595;29;20051;-88
2021/12/21 08:00:25;;;;;;;60.60;29.48;;;;;;;-6.78;100.00;102615.47;4916659;29;20036;-89
2021/12/21 08:02:57;;;;;;;66.18;30.67;;;;;;;-6.61;100.00;102630.03;4915842;29;20039;-88
2021/12/21 08:05:23;;;;;;;68.00;29.60;;;;;;;-6.66;100.00;102606.00;4926845;29;20036;-83
2021/12/21 08:08:08;;;;;;;67.97;31.08;;;;;;;-6.51;100.00;102608.53;4916091;29;20036;-83
2021/12/21 08:10:43;;;;;;;79.22;31.65;;;;;;;-6.43;100.00;102614.09;4915645;29;20035;-82
2021/12/21 08:13:09;;;;;;;79.80;34.28;;;;;;;-6.39;100.00;102610.34;4916411;29;20060;-84
2021/12/21 08:15:35;;;;;;;76.95;33.03;;;;;;;-6.35;100.00;102619.63;4932446;29;20071;-83
2021/12/21 08:18:00;;;;;;;85.22;33.85;;;;;;;-6.30;100.00;102621.97;4935522;29;20447;-83
2021/12/21 08:20:27;;;;;;;72.60;33.10;;;;;;;-6.33;100.00;102604.72;4933397;29;20110;-84
2021/12/21 08:22:53;;;;;;;78.35;33.08;;;;;;;-6.34;100.00;102603.03;4932746;29;20023;-83
2021/12/21 08:25:24;;;;;;;82.40;35.60;;;;;;;-6.20;100.00;102607.34;4934115;29;20092;-83
2021/12/21 08:27:50;;;;;;;86.80;35.30;;;;;;;-6.32;100.00;102582.91;4925536;29;20490;-83
2021/12/21 08:30:16;;;;;;;95.97;35.92;;;;;;;-6.10;100.00;102618.81;4934269;29;20056;-83
2021/12/21 08:32:41;;;;;;;92.82;35.00;;;;;;;-6.25;100.00;102596.38;4932075;29;20055;-83
2021/12/21 08:35:07;;;;;;;90.18;35.80;;;;;;;-6.23;100.00;102607.53;4928224;29;20549;-83
2021/12/21 08:37:34;;;;;;;94.95;36.17;;;;;;;-6.26;100.00;102603.38;4923152;29;20130;-83
2021/12/21 08:40:00;;;;;;;91.97;33.60;;;;;;;-6.20;100.00;102622.16;4932664;29;20030;-83
2021/12/21 08:42:26;;;;;;;93.38;35.88;;;;;;;-6.32;100.00;102609.00;4934679;29;20032;-83
2021/12/21 08:44:51;;;;;;;89.35;34.95;;;;;;;-6.25;100.00;102615.50;4934557;29;20027;-82
2021/12/21 08:47:17;;;;;;;95.10;36.28;;;;;;;-6.13;100.00;102620.81;4934429;29;20035;-83
2021/12/21 08:49:42;;;;;;;93.78;35.25;;;;;;;-6.14;100.00;102619.13;4924171;29;20027;-83
2021/12/21 08:52:07;;;;;;;98.88;37.92;;;;;;;-6.06;100.00;102629.91;4932230;29;20032;-83
2021/12/21 08:54:32;;;;;;;100.00;39.40;;;;;;;-6.08;100.00;102610.91;4936518;29;20389;-83
2021/12/21 08:56:58;;;;;;;91.85;39.20;;;;;;;-5.91;100.00;102616.72;4953414;29;20024;-83
2021/12/21 08:59:23;;;;;;;102.53;42.33;;;;;;;-5.78;100.00;102617.53;4917860;29;20107;-81
2021/12/21 09:01:51;;;;;;;102.53;39.58;;;;;;;-5.68;100.00;102625.59;4933652;29;20039;-81
2021/12/21 09:04:18;;;;;;;86.82;37.78;;;;;;;-5.67;100.00;102625.50;4930366;29;20540;-82
2021/12/21 09:06:44;;;;;;;87.00;37.75;;;;;;;-5.81;100.00;102613.38;4928877;29;20115;-82
2021/12/21 09:09:09;;;;;;;84.10;38.63;;;;;;;-5.63;100.00;102640.00;4932461;29;20110;-82
2021/12/21 09:11:35;;;;;;;99.10;43.85;;;;;;;-5.70;100.00;102610.03;4933862;29;20463;-82
2021/12/21 09:14:00;;;;;;;88.22;40.65;;;;;;;-5.52;100.00;102630.59;4933459;29;20042;-82
2021/12/21 09:16:26;;;;;;;94.13;41.60;;;;;;;-5.32;100.00;102644.88;4933311;29;20028;-83
2021/12/21 09:18:51;;;;;;;93.88;42.63;;;;;;;-5.40;100.00;102621.88;4931382;29;20036;-84
2021/12/21 09:21:16;;;;;;;91.22;43.78;;;;;;;-5.22;100.00;102625.00;4933190;29;20374;-83
2021/12/21 09:23:41;;;;;;;89.53;42.72;;;;;;;-5.15;100.00;102616.69;4932433;29;20023;-83
2021/12/21 09:26:07;;;;;;;98.25;44.33;;;;;;;-5.08;100.00;102620.56;4933799;29;20032;-84
2021/12/21 09:28:32;;;;;;;99.25;44.72;;;;;;;-4.91;100.00;102635.88;4915990;29;20031;-84
2021/12/21 09:30:58;;;;;;;98.57;45.28;;;;;;;-4.92;100.00;102625.50;4931800;29;20091;-85
2021/12/21 09:33:23;;;;;;;89.68;45.13;;;;;;;-4.89;100.00;102618.28;4933035;29;20147;-84
2021/12/21 09:35:49;;;;;;;86.15;43.95;;;;;;;-4.80;100.00;102624.63;4933437;29;20047;-84
2021/12/21 09:38:14;;;;;;;86.03;43.03;;;;;;;-4.82;100.00;102623.06;4915487;29;20387;-84
2021/12/21 09:40:40;;;;;;;95.03;45.50;;;;;;;-4.89;100.00;102602.59;4933576;29;20436;-83
2021/12/21 09:43:10;;;;;;;92.13;47.10;;;;;;;-4.73;100.00;102620.59;4933303;29;20035;-84
2021/12/21 09:45:36;;;;;;;91.85;45.65;;;;;;;-4.63;100.00;102628.59;4930061;29;20028;-84
2021/12/21 09:48:02;;;;;;;84.03;43.92;;;;;;;-4.74;100.00;102613.69;4940725;29;20176;-82
2021/12/21 09:50:27;;;;;;;98.75;46.20;;;;;;;-4.73;100.00;102606.69;4934022;28;20391;-83
2021/12/21 09:52:54;;;;;;;100.70;48.78;;;;;;;-4.62;100.00;102611.97;4933272;29;20403;-82
2021/12/21 09:55:19;;;;;;;98.82;50.28;;;;;;;-4.39;100.00;102629.53;4931830;29;20518;-82
2021/12/21 09:57:46;;;;;;;106.13;52.10;;;;;;;-4.28;100.00;102629.56;4932379;29;20163;-83
2021/12/21 10:00:15;;;;;;;98.20;49.50;;;;;;;-4.28;100.00;102608.63;4931366;29;20024;-82
2021/12/21 10:02:41;;;;;;;104.18;52.17;;;;;;;-4.29;100.00;102607.78;4930640;29;20035;-85
2021/12/21 10:05:10;;;;;;;107.72;50.70;;;;;;;-4.06;100.00;102631.41;4932974;29;20095;-82
2021/12/21 10:07:36;;;;;;;107.55;55.90;;;;;;;-3.89;100.00;102626.66;4917052;29;20118;-83
2021/12/21 10:10:14;;;;;;;114.55;56.55;;;;;;;-3.88;100.00;102610.84;4943786;29;20173;-83
2021/12/21 10:12:42;;;;;;;109.30;56.97;;;;;;;-3.76;100.00;102613.44;4937315;29;20079;-82
2021/12/21 10:15:15;;;;;;;112.80;52.85;;;;;;;-3.78;100.00;102610.13;4931072;29;20023;-82
2021/12/21 10:17:51;;;;;;;101.32;51.92;;;;;;;-3.90;100.00;102591.78;4932902;29;20042;-83
2021/12/21 10:20:33;;;;;;;103.20;51.42;;;;;;;-3.70;100.00;102619.06;4932675;29;20086;-83
2021/12/21 10:22:59;;;;;;;104.50;52.95;;;;;;;-3.61;100.00;102617.50;4913740;29;20031;-83
2021/12/21 10:25:25;;;;;;;100.88;52.88;;;;;;;-3.55;100.00;102617.03;4933100;29;20032;-82
2021/12/21 10:27:51;;;;;;;105.38;52.92;;;;;;;-3.62;100.00;102592.25;4921912;28;20395;-84
2021/12/21 10:30:19;;;;;;;108.32;53.95;;;;;;;-3.45;100.00;102588.31;4929937;28;20027;-84
2021/12/21 10:32:51;;;;;;;105.75;53.95;;;;;;;-3.31;100.00;102602.09;4951620;29;20023;-83
2021/12/21 10:35:16;;;;;;;100.03;53.20;;;;;;;-3.38;100.00;102575.53;4937298;29;20430;-83
2021/12/21 10:37:50;;;;;;;103.95;54.72;;;;;;;-3.17;100.00;102591.34;4931763;29;20040;-84
2021/12/21 10:40:23;;;;;;;97.72;51.08;;;;;;;-3.20;100.00;102576.69;4929754;29;20078;-83
2021/12/21 10:42:49;;;;;;;105.38;56.03;;;;;;;-2.95;100.00;102598.34;4951592;29;20487;-84
2021/12/21 10:45:15;;;;;;;100.90;54.50;;;;;;;-2.82;100.00;102602.56;4951609;29;20035;-83
2021/12/21 10:47:43;;;;;;;92.78;51.92;;;;;;;-2.75;100.00;102598.50;4931260;29;20046;-83
2021/12/21 10:50:08;;;;;;;93.75;51.72;;;;;;;-2.66;100.00;102592.47;4933032;29;20079;-83
2021/12/21 10:52:33;;;;;;;92.22;50.50;;;;;;;-2.72;100.00;102585.09;4932415;29;20032;-83
2021/12/21 10:54:59;;;;;;;94.07;51.13;;;;;;;-2.66;100.00;102579.34;4921424;29;20024;-83
2021/12/21 10:57:31;;;;;;;100.13;51.40;;;;;;;-2.52;100.00;102596.59;4913481;29;20044;-83
2021/12/21 10:59:59;;;;;;;92.55;50.53;;;;;;;-2.47;100.00;102601.47;4913316;29;20035;-83
2021/12/21 11:02:32;;;;;;;84.05;48.72;;;;;;;-2.44;100.00;102593.34;4903961;29;20027;-83
2021/12/21 11:05:07;;;;;;;80.78;47.72;;;;;;;-2.42;100.00;102591.41;4932638;29;20036;-83
2021/12/21 11:10:12;;;;;;;71.53;43.65;;;;;;;-2.26;100.00;102585.69;4928070;29;20040;-83
2021/12/21 11:12:52;;;;;;;83.25;47.15;;;;;;;-2.18;100.00;102585.06;4929782;29;20042;-83
2021/12/21 11:15:31;;;;;;;78.82;47.35;;;;;;;-2.16;100.00;102577.88;4931625;29;20040;-83
2021/12/21 11:17:58;;;;;;;74.70;45.67;;;;;;;-2.06;100.00;102584.03;4911779;29;20051;-83
2021/12/21 11:20:24;;;;;;;74.25;44.28;;;;;;;-1.98;100.00;102580.75;4931290;29;20035;-83
2021/12/21 11:22:52;;;;;;;61.97;39.20;;;;;;;-1.90;100.00;102585.34;4932350;29;20044;-83
2021/12/21 11:25:18;;;;;;;59.20;37.80;;;;;;;-1.86;100.00;102584.13;4912529;29;20040;-83
2021/12/21 11:27:44;;;;;;;55.60;34.55;;;;;;;-1.76;100.00;102577.09;4930683;29;20463;-84
2021/12/21 11:30:14;;;;;;;54.40;33.28;;;;;;;-1.74;100.00;102558.59;4931170;29;20107;-83
2021/12/21 11:32:48;;;;;;;56.90;33.53;;;;;;;-1.54;100.00;102576.06;4932486;29;20487;-83
2021/12/21 11:37:45;;;;;;;;;;;;;;;-1.44;100.00;102548.97;4933445;29;20047;-83
2021/12/21 11:40:15;;;;;;;48.97;28.90;;;;;;;-1.41;100.00;102541.63;4933893;29;19918;-83
2021/12/21 11:43:04;;;;;;;44.05;27.00;;;;;;;-1.32;100.00;102531.28;4933582;29;20028;-84
2021/12/21 11:45:45;;;;;;;47.90;27.85;;;;;;;-1.38;100.00;102517.69;4913014;29;20083;-84
2021/12/21 11:48:10;;;;;;;44.00;26.77;;;;;;;-1.25;100.00;102542.88;4896766;29;20044;-83
2021/12/21 11:50:38;;;;;;;44.28;28.15;;;;;;;-1.18;100.00;102545.81;4916357;29;20024;-84
2021/12/21 11:53:07;;;;;;;43.60;28.60;;;;;;;-1.19;100.00;102538.91;4916390;29;20068;-84
2021/12/21 11:55:37;;;;;;;45.08;27.45;;;;;;;-1.15;100.00;102546.38;4918636;29;20384;-84
2021/12/21 11:58:21;;;;;;;48.00;29.48;;;;;;;-1.19;100.00;102529.19;4934563;29;20038;-84
2021/12/21 12:00:58;;;;;;;43.75;27.92;;;;;;;-1.08;100.00;102541.41;4933595;29;20040;-84
2021/12/21 12:03:26;;;;;;;47.28;27.40;;;;;;;-1.00;100.00;102548.59;4935436;29;20070;-83
2021/12/21 12:06:13;;;;;;;46.30;27.75;;;;;;;-1.04;100.00;102536.69;4935215;29;20034;-84